createdAt,value
2022-10-11T00:00:55.917Z,9.20
2022-10-11T00:03:24.062Z,9.10
2022-10-11T00:05:53.874Z,9.10
2022-10-11T00:08:22.288Z,9.00
2022-10-11T00:10:59.931Z,9.00
2022-10-11T00:13:28.665Z,9.00
2022-10-11T00:15:57.201Z,9.10
2022-10-11T00:18:25.677Z,8.90
2022-10-11T00:21:02.951Z,8.90
2022-10-11T00:23:31.047Z,8.80
2022-10-11T00:26:02.142Z,8.90
2022-10-11T00:28:30.949Z,8.80
2022-10-11T00:30:59.097Z,8.80
2022-10-11T00:33:27.624Z,8.70
2022-10-11T00:35:56.857Z,8.70
2022-10-11T00:38:25.115Z,8.70
2022-10-11T00:40:53.325Z,8.70
2022-10-11T00:43:25.638Z,8.70
2022-10-11T00:46:06.732Z,8.70
2022-10-11T00:48:41.257Z,8.60
2022-10-11T00:51:17.730Z,8.60
2022-10-11T00:53:48.153Z,8.60
2022-10-11T00:56:21.746Z,8.50
2022-10-11T00:58:51.625Z,8.60
2022-10-11T01:01:19.818Z,8.50
2022-10-11T01:03:48.001Z,8.50
2022-10-11T01:06:16.913Z,8.40
2022-10-11T01:08:45.653Z,8.50
2022-10-11T01:11:17.040Z,8.50
2022-10-11T01:13:55.477Z,8.50
2022-10-11T01:16:29.609Z,8.50
2022-10-11T01:19:07.132Z,8.50
2022-10-11T01:21:42.782Z,8.40
2022-10-11T01:24:43.017Z,8.50
2022-10-11T01:27:39.045Z,8.40
2022-10-11T01:30:25.343Z,8.40
2022-10-11T01:33:07.335Z,8.40
2022-10-11T01:35:41.862Z,8.50
2022-10-11T01:38:15.567Z,8.50
2022-10-11T01:40:48.176Z,8.50
2022-10-11T01:43:17.650Z,8.60
2022-10-11T01:45:50.697Z,8.60
2022-10-11T01:48:18.919Z,8.60
2022-10-11T01:50:51.191Z,8.70
2022-10-11T01:53:46.981Z,8.70
2022-10-11T01:56:25.422Z,8.60
2022-10-11T01:59:09.273Z,8.70
2022-10-11T02:01:48.705Z,8.70
2022-10-11T02:04:21.877Z,8.70
2022-10-11T02:06:57.849Z,8.70
2022-10-11T02:09:31.053Z,8.70
2022-10-11T02:12:06.506Z,8.70
2022-10-11T02:14:38.043Z,8.70
2022-10-11T02:17:11.363Z,8.80
2022-10-11T02:19:43.980Z,8.70
2022-10-11T02:22:16.753Z,8.80
2022-10-11T02:24:49.008Z,8.80
2022-10-11T02:27:21.312Z,8.80
2022-10-11T02:29:51.719Z,8.80
2022-10-11T02:32:22.564Z,8.80
2022-10-11T02:34:54.839Z,8.80
2022-10-11T02:37:31.644Z,8.80
2022-10-11T02:40:05.190Z,8.80
2022-10-11T02:42:37.856Z,8.80
2022-10-11T02:45:11.934Z,8.80
2022-10-11T02:47:42.941Z,8.80
2022-10-11T02:50:12.518Z,8.80
2022-10-11T02:52:40.959Z,8.70
2022-10-11T02:55:10.154Z,8.70
2022-10-11T02:57:39.273Z,8.70
2022-10-11T03:00:09.083Z,8.70
2022-10-11T03:02:37.504Z,8.80
2022-10-11T03:05:07.422Z,8.90
2022-10-11T03:07:35.576Z,8.80
2022-10-11T03:10:03.749Z,8.80
2022-10-11T03:12:31.967Z,8.80
2022-10-11T03:15:00.086Z,8.90
2022-10-11T03:17:36.836Z,8.90
2022-10-11T03:20:08.662Z,8.80
2022-10-11T03:22:36.836Z,8.80
2022-10-11T03:25:05.498Z,8.80
2022-10-11T03:27:34.081Z,8.90
2022-10-11T03:30:02.831Z,8.90
2022-10-11T03:32:31.168Z,8.80
2022-10-11T03:34:59.261Z,8.90
2022-10-11T03:37:28.943Z,8.90
2022-10-11T03:39:57.098Z,9.00
2022-10-11T03:42:25.345Z,9.10
2022-10-11T03:44:53.540Z,9.00
2022-10-11T03:47:21.645Z,9.00
2022-10-11T03:49:49.857Z,9.10
2022-10-11T03:52:18.117Z,9.00
2022-10-11T03:54:47.587Z,9.00
2022-10-11T03:57:15.753Z,9.00
2022-10-11T03:59:43.875Z,8.90
2022-10-11T04:02:12.190Z,8.90
2022-10-11T04:04:40.439Z,8.90
2022-10-11T04:07:08.617Z,8.90
2022-10-11T04:09:36.706Z,8.80
2022-10-11T04:12:06.487Z,8.80
2022-10-11T04:14:34.618Z,8.80
2022-10-11T04:17:02.766Z,8.70
2022-10-11T04:19:30.857Z,8.60
2022-10-11T04:21:59.091Z,8.50
2022-10-11T04:24:27.192Z,8.50
2022-10-11T04:26:55.291Z,8.40
2022-10-11T04:29:28.790Z,8.40
2022-10-11T04:32:00.455Z,8.40
2022-10-11T04:34:28.676Z,8.30
2022-10-11T04:36:56.836Z,8.40
2022-10-11T04:39:24.997Z,8.30
2022-10-11T04:41:53.102Z,8.20
2022-10-11T04:44:21.215Z,8.30
2022-10-11T04:46:50.688Z,8.30
2022-10-11T04:49:18.850Z,8.30
2022-10-11T04:51:46.956Z,8.30
2022-10-11T04:54:15.062Z,8.30
2022-10-11T04:56:43.223Z,8.30
2022-10-11T04:59:11.788Z,8.20
2022-10-11T05:01:40.062Z,8.20
2022-10-11T05:04:10.022Z,8.20
2022-10-11T05:06:38.103Z,8.10
2022-10-11T05:09:06.248Z,8.20
2022-10-11T05:11:34.348Z,8.20
2022-10-11T05:14:02.470Z,8.10
2022-10-11T05:16:30.654Z,8.10
2022-10-11T05:18:58.738Z,8.20
2022-10-11T05:21:30.380Z,8.00
2022-10-11T05:23:59.348Z,8.10
2022-10-11T05:26:28.868Z,8.10
2022-10-11T05:28:57.616Z,8.10
2022-10-11T05:31:25.927Z,8.10
2022-10-11T05:33:54.060Z,8.20
2022-10-11T05:36:22.311Z,8.20
2022-10-11T05:38:51.744Z,8.20
2022-10-11T05:41:19.901Z,8.30
2022-10-11T05:43:48.114Z,8.30
2022-10-11T05:46:16.797Z,8.40
2022-10-11T05:48:45.353Z,8.50
2022-10-11T05:51:14.106Z,8.50
2022-10-11T05:53:42.417Z,8.70
2022-10-11T05:56:21.862Z,8.70
2022-10-11T05:58:50.303Z,8.80
2022-10-11T06:01:22.786Z,8.80
2022-10-11T06:03:50.956Z,8.90
2022-10-11T06:06:19.982Z,9.00
2022-10-11T06:08:48.527Z,9.10
2022-10-11T06:11:20.683Z,9.20
2022-10-11T06:13:48.761Z,9.40
2022-10-11T06:16:17.126Z,9.40
2022-10-11T06:18:45.404Z,9.60
2022-10-11T06:21:15.481Z,9.80
2022-10-11T06:23:43.632Z,9.90
2022-10-11T06:26:12.006Z,10.00
2022-10-11T06:28:41.612Z,10.20
2022-10-11T06:31:09.750Z,10.40
2022-10-11T06:33:38.022Z,10.60
2022-10-11T06:36:08.504Z,10.70
2022-10-11T06:38:40.970Z,10.90
2022-10-11T06:41:14.097Z,11.10
2022-10-11T06:43:43.557Z,11.20
2022-10-11T06:46:12.434Z,11.20
2022-10-11T06:48:41.664Z,11.30
2022-10-11T06:51:09.942Z,11.30
2022-10-11T06:53:38.230Z,11.30
2022-10-11T06:56:08.788Z,11.30
2022-10-11T06:58:37.797Z,11.30
2022-10-11T07:01:09.951Z,11.30
2022-10-11T07:03:38.496Z,11.20
2022-10-11T07:06:09.937Z,11.20
2022-10-11T07:08:39.083Z,11.30
2022-10-11T07:11:09.385Z,11.40
2022-10-11T07:13:38.271Z,11.40
2022-10-11T07:16:11.340Z,11.30
2022-10-11T07:18:39.883Z,11.20
2022-10-11T07:21:11.469Z,11.20
2022-10-11T07:23:39.723Z,11.20
2022-10-11T07:26:09.901Z,11.30
2022-10-11T07:28:39.090Z,11.30
2022-10-11T07:31:10.841Z,11.50
2022-10-11T07:33:38.939Z,11.60
2022-10-11T07:36:08.345Z,11.60
2022-10-11T07:38:39.653Z,11.80
2022-10-11T07:41:08.679Z,11.90
2022-10-11T07:43:37.604Z,12.00
2022-10-11T07:46:08.537Z,12.00
2022-10-11T07:48:37.807Z,12.10
2022-10-11T07:51:08.149Z,12.20
2022-10-11T07:53:40.681Z,12.20
2022-10-11T07:56:09.954Z,12.20
2022-10-11T07:58:38.090Z,12.00
2022-10-11T08:01:08.963Z,12.20
2022-10-11T08:03:37.656Z,12.20
2022-10-11T08:06:09.707Z,12.30
2022-10-11T08:08:38.756Z,12.30
2022-10-11T08:11:07.561Z,12.40
2022-10-11T08:13:35.839Z,12.50
2022-10-11T08:16:12.208Z,12.50
2022-10-11T08:18:43.923Z,12.50
2022-10-11T08:21:16.035Z,12.60
2022-10-11T08:23:44.181Z,12.70
2022-10-11T08:26:12.674Z,12.70
2022-10-11T08:28:40.882Z,12.80
2022-10-11T08:31:13.994Z,13.00
2022-10-11T08:33:42.076Z,13.10
2022-10-11T08:36:11.495Z,13.20
2022-10-11T08:38:40.504Z,13.20
2022-10-11T08:41:26.507Z,13.20
2022-10-11T08:44:03.652Z,13.30
2022-10-11T08:46:35.090Z,13.50
2022-10-11T08:49:04.145Z,13.40
2022-10-11T08:51:36.438Z,13.60
2022-10-11T08:54:08.349Z,13.60
2022-10-11T08:56:38.796Z,13.50
2022-10-11T08:59:25.574Z,13.40
2022-10-11T09:02:02.552Z,13.40
2022-10-11T09:04:32.312Z,13.60
2022-10-11T09:07:07.236Z,13.70
2022-10-11T09:09:54.370Z,13.80
2022-10-11T09:12:34.289Z,13.90
2022-10-11T09:15:19.043Z,13.90
2022-10-11T09:18:15.636Z,14.10
2022-10-11T09:21:00.867Z,14.20
2022-10-11T09:23:48.161Z,14.10
2022-10-11T09:26:23.055Z,13.90
2022-10-11T09:29:01.210Z,13.70
2022-10-11T09:31:30.692Z,13.90
2022-10-11T09:34:12.026Z,13.90
2022-10-11T09:36:45.777Z,13.90
2022-10-11T09:39:26.465Z,13.90
2022-10-11T09:42:00.039Z,14.00
2022-10-11T09:44:29.630Z,14.00
2022-10-11T09:46:58.834Z,14.20
2022-10-11T09:49:33.090Z,14.30
2022-10-11T09:52:04.038Z,14.40
2022-10-11T09:54:40.408Z,14.30
2022-10-11T09:57:22.709Z,14.10
2022-10-11T10:00:07.005Z,14.10
2022-10-11T10:02:43.209Z,14.50
2022-10-11T10:05:20.193Z,15.30
2022-10-11T10:08:20.232Z,15.70
2022-10-11T10:10:55.779Z,15.70
2022-10-11T10:13:30.215Z,15.40
2022-10-11T10:15:59.943Z,15.10
2022-10-11T10:18:33.829Z,15.00
2022-10-11T10:21:04.839Z,15.50
2022-10-11T10:23:34.875Z,15.80
2022-10-11T10:26:18.226Z,16.20
2022-10-11T10:28:58.239Z,16.60
2022-10-11T10:31:30.811Z,16.80
2022-10-11T10:33:59.766Z,16.60
2022-10-11T10:36:33.947Z,16.70
2022-10-11T10:39:10.111Z,17.00
2022-10-11T10:41:38.238Z,17.20
2022-10-11T10:44:06.955Z,16.90
2022-10-11T10:46:51.774Z,16.50
2022-10-11T10:49:52.704Z,15.80
2022-10-11T10:52:42.832Z,15.10
2022-10-11T10:55:21.846Z,15.30
2022-10-11T10:58:00.377Z,16.00
2022-10-11T11:00:35.039Z,16.70
2022-10-11T11:03:04.753Z,17.10
2022-10-11T11:05:42.947Z,17.10
2022-10-11T11:08:17.091Z,16.90
2022-10-11T11:10:53.046Z,16.50
2022-10-11T11:13:29.753Z,15.80
2022-10-11T11:16:12.086Z,15.50
2022-10-11T11:18:46.461Z,15.20
2022-10-11T11:21:41.238Z,15.80
2022-10-11T11:24:19.521Z,16.60
2022-10-11T11:26:53.591Z,17.60
2022-10-11T11:29:34.874Z,17.80
2022-10-11T11:32:15.483Z,17.90
2022-10-11T11:34:47.525Z,17.10
2022-10-11T11:37:24.006Z,16.10
2022-10-11T11:39:58.208Z,15.60
2022-10-11T11:42:32.229Z,15.10
2022-10-11T11:45:06.386Z,14.70
2022-10-11T11:47:38.629Z,14.40
2022-10-11T11:50:22.300Z,14.20
2022-10-11T11:52:53.960Z,14.20
2022-10-11T11:55:32.469Z,14.60
2022-10-11T11:58:13.575Z,15.00
2022-10-11T12:00:51.895Z,15.20
2022-10-11T12:03:24.855Z,15.60
2022-10-11T12:06:20.137Z,15.80
2022-10-11T12:08:50.604Z,15.60
2022-10-11T12:11:25.248Z,15.40
2022-10-11T12:13:55.357Z,15.20
2022-10-11T12:16:24.382Z,15.40
2022-10-11T12:19:00.503Z,15.20
2022-10-11T12:21:32.926Z,15.00
2022-10-11T12:24:10.158Z,15.00
2022-10-11T12:26:41.903Z,14.70
2022-10-11T12:29:42.741Z,14.50
2022-10-11T12:32:51.104Z,14.40
2022-10-11T12:35:40.045Z,14.50
2022-10-11T12:38:16.980Z,14.30
2022-10-11T12:40:47.694Z,14.40
2022-10-11T12:43:30.681Z,14.40
2022-10-11T12:46:19.391Z,14.40
2022-10-11T12:48:55.300Z,14.30
2022-10-11T12:51:37.205Z,14.10
2022-10-11T12:54:27.457Z,14.10
2022-10-11T12:57:22.856Z,14.50
2022-10-11T12:59:52.370Z,15.20
2022-10-11T13:02:30.004Z,15.90
2022-10-11T13:05:08.940Z,16.30
2022-10-11T13:07:37.253Z,16.30
2022-10-11T13:10:06.983Z,16.50
2022-10-11T13:12:41.053Z,16.60
2022-10-11T13:15:16.468Z,16.40
2022-10-11T13:17:44.644Z,16.60
2022-10-11T13:20:20.240Z,16.50
2022-10-11T13:22:50.707Z,16.40
2022-10-11T13:25:22.052Z,16.50
2022-10-11T13:27:52.280Z,16.50
2022-10-11T13:30:25.930Z,16.60
2022-10-11T13:32:54.625Z,16.70
2022-10-11T13:35:29.449Z,16.60
2022-10-11T13:37:57.685Z,16.60
2022-10-11T13:40:26.270Z,16.70
2022-10-11T13:42:56.159Z,16.50
2022-10-11T13:45:27.056Z,16.50
2022-10-11T13:47:56.363Z,16.50
2022-10-11T13:50:31.831Z,16.50
2022-10-11T13:53:02.435Z,16.30
2022-10-11T13:55:33.576Z,16.20
2022-10-11T13:58:04.190Z,16.00
2022-10-11T14:00:40.207Z,16.00
2022-10-11T14:03:18.282Z,15.70
2022-10-11T14:05:54.872Z,15.50
2022-10-11T14:08:28.180Z,15.40
2022-10-11T14:10:58.552Z,15.40
2022-10-11T14:13:32.593Z,15.40
2022-10-11T14:16:05.430Z,15.40
2022-10-11T14:18:39.897Z,15.40
2022-10-11T14:21:28.248Z,15.30
2022-10-11T14:23:57.938Z,15.10
2022-10-11T14:26:27.888Z,15.00
2022-10-11T14:28:59.581Z,14.90
2022-10-11T14:31:32.218Z,14.80
2022-10-11T14:34:00.446Z,14.70
2022-10-11T14:36:28.629Z,14.60
2022-10-11T14:38:56.739Z,14.40
2022-10-11T14:41:25.061Z,14.40
2022-10-11T14:43:56.309Z,14.40
2022-10-11T14:46:26.275Z,14.30
2022-10-11T14:48:56.818Z,14.20
2022-10-11T14:51:30.289Z,14.00
2022-10-11T14:53:59.154Z,13.90
2022-10-11T14:56:27.437Z,13.90
2022-10-11T14:58:55.535Z,13.80
2022-10-11T15:01:23.739Z,13.80
2022-10-11T15:03:52.007Z,13.70
2022-10-11T15:06:24.257Z,13.50
2022-10-11T15:08:52.549Z,13.60
2022-10-11T15:11:22.355Z,13.60
2022-10-11T15:13:50.649Z,13.50
2022-10-11T15:16:21.263Z,13.40
2022-10-11T15:18:51.036Z,13.30
2022-10-11T15:21:22.604Z,13.10
2022-10-11T15:23:51.985Z,13.00
2022-10-11T15:26:22.486Z,12.90
2022-10-11T15:28:50.901Z,12.80
2022-10-11T15:31:19.270Z,12.80
2022-10-11T15:33:47.859Z,12.70
2022-10-11T15:36:18.381Z,12.50
2022-10-11T15:38:48.576Z,12.40
2022-10-11T15:41:18.864Z,12.30
2022-10-11T15:43:48.509Z,12.20
2022-10-11T15:46:18.814Z,12.10
2022-10-11T15:48:47.733Z,12.00
2022-10-11T15:51:17.260Z,11.90
2022-10-11T15:53:47.458Z,11.80
2022-10-11T15:56:18.752Z,11.70
2022-10-11T15:58:46.987Z,11.60
2022-10-11T16:01:17.583Z,11.50
2022-10-11T16:03:46.187Z,11.50
2022-10-11T16:06:14.399Z,11.40
2022-10-11T16:08:42.460Z,11.30
2022-10-11T16:11:13.178Z,11.20
2022-10-11T16:13:41.446Z,11.00
2022-10-11T16:16:11.791Z,11.00
2022-10-11T16:18:40.017Z,10.90
2022-10-11T16:21:10.754Z,10.80
2022-10-11T16:23:39.215Z,10.70
2022-10-11T16:26:10.115Z,10.60
2022-10-11T16:28:40.057Z,10.60
2022-10-11T16:31:09.290Z,10.50
2022-10-11T16:33:45.493Z,10.40
2022-10-11T16:36:35.714Z,10.30
2022-10-11T16:39:07.787Z,10.20
2022-10-11T16:41:36.031Z,10.10
2022-10-11T16:44:05.928Z,10.10
2022-10-11T16:46:34.853Z,10.00
2022-10-11T16:49:02.934Z,9.90
2022-10-11T16:51:30.994Z,9.80
2022-10-11T16:53:59.040Z,9.80
2022-10-11T16:56:27.993Z,9.70
2022-10-11T16:58:56.677Z,9.60
2022-10-11T17:01:26.950Z,9.50
2022-10-11T17:03:55.760Z,9.40
2022-10-11T17:06:24.429Z,9.40
2022-10-11T17:08:52.801Z,9.30
2022-10-11T17:11:22.209Z,9.30
2022-10-11T17:13:51.535Z,9.20
2022-10-11T17:16:20.015Z,9.20
2022-10-11T17:18:49.667Z,9.10
2022-10-11T17:21:19.539Z,9.00
2022-10-11T17:23:48.442Z,9.00
2022-10-11T17:26:18.759Z,8.90
2022-10-11T17:28:47.735Z,8.90
2022-10-11T17:31:16.151Z,8.80
2022-10-11T17:33:44.296Z,8.80
2022-10-11T17:36:21.711Z,8.80
2022-10-11T17:38:50.723Z,8.70
2022-10-11T17:41:19.926Z,8.70
2022-10-11T17:43:48.169Z,8.70
2022-10-11T17:46:17.563Z,8.70
2022-10-11T17:48:46.102Z,8.60
2022-10-11T17:51:17.937Z,8.60
2022-10-11T17:53:46.264Z,8.50
2022-10-11T17:56:15.851Z,8.50
2022-10-11T17:58:45.130Z,8.40
2022-10-11T18:01:15.882Z,8.50
2022-10-11T18:03:45.415Z,8.40
2022-10-11T18:06:16.169Z,8.40
2022-10-11T18:08:44.228Z,8.40
2022-10-11T18:11:14.122Z,8.40
2022-10-11T18:13:45.963Z,8.30
2022-10-11T18:16:15.130Z,8.30
2022-10-11T18:18:43.944Z,8.30
2022-10-11T18:21:12.572Z,8.30
2022-10-11T18:23:42.407Z,8.20
2022-10-11T18:26:12.575Z,8.30
2022-10-11T18:28:41.722Z,8.30
2022-10-11T18:31:13.640Z,8.20
2022-10-11T18:33:42.961Z,8.20
2022-10-11T18:36:13.512Z,8.10
2022-10-11T18:38:46.579Z,8.10
2022-10-11T18:41:16.782Z,8.00
2022-10-11T18:43:50.046Z,8.00
2022-10-11T18:46:19.267Z,8.00
2022-10-11T18:48:49.278Z,8.00
2022-10-11T18:51:19.582Z,7.90
2022-10-11T18:53:50.018Z,7.90
2022-10-11T18:56:20.882Z,7.80
2022-10-11T18:58:50.281Z,7.80
2022-10-11T19:01:20.938Z,7.80
2022-10-11T19:03:52.448Z,7.70
2022-10-11T19:06:22.994Z,7.70
2022-10-11T19:08:54.062Z,7.60
2022-10-11T19:11:25.251Z,7.60
2022-10-11T19:13:57.344Z,7.60
2022-10-11T19:16:26.272Z,7.60
2022-10-11T19:18:55.347Z,7.60
2022-10-11T19:21:24.243Z,7.50
2022-10-11T19:23:55.650Z,7.50
2022-10-11T19:26:26.290Z,7.50
2022-10-11T19:28:57.159Z,7.50
2022-10-11T19:31:25.657Z,7.50
2022-10-11T19:33:58.294Z,7.40
2022-10-11T19:36:27.533Z,7.40
2022-10-11T19:38:57.937Z,7.30
2022-10-11T19:41:27.389Z,7.30
2022-10-11T19:43:58.070Z,7.30
2022-10-11T19:46:49.760Z,7.30
2022-10-11T19:49:17.587Z,7.30
2022-10-11T19:51:46.029Z,7.20
2022-10-11T19:54:16.224Z,7.20
2022-10-11T19:56:45.324Z,7.20
2022-10-11T19:59:14.737Z,7.10
2022-10-11T20:01:45.597Z,7.10
2022-10-11T20:04:33.104Z,7.10
2022-10-11T20:07:03.146Z,7.10
2022-10-11T20:09:32.749Z,7.00
2022-10-11T20:12:00.856Z,7.00
2022-10-11T20:14:29.048Z,7.00
2022-10-11T20:16:57.148Z,6.90
2022-10-11T20:19:30.361Z,6.90
2022-10-11T20:21:59.113Z,6.80
2022-10-11T20:24:29.006Z,6.80
2022-10-11T20:26:58.617Z,6.70
2022-10-11T20:29:27.226Z,6.70
2022-10-11T20:31:56.243Z,6.70
2022-10-11T20:34:24.401Z,6.70
2022-10-11T20:36:52.479Z,6.70
2022-10-11T20:39:20.667Z,6.60
2022-10-11T20:41:48.780Z,6.50
2022-10-11T20:44:18.288Z,6.50
2022-10-11T20:46:46.330Z,6.50
2022-10-11T20:49:14.384Z,6.40
2022-10-11T20:51:43.818Z,6.40
2022-10-11T20:54:12.256Z,6.40
2022-10-11T20:56:40.388Z,6.40
2022-10-11T20:59:08.914Z,6.30
2022-10-11T21:01:40.291Z,6.30
2022-10-11T21:04:11.184Z,6.30
2022-10-11T21:06:39.328Z,6.30
2022-10-11T21:09:09.333Z,6.30
2022-10-11T21:11:39.434Z,6.30
2022-10-11T21:14:07.747Z,6.30
2022-10-11T21:16:35.908Z,6.20
2022-10-11T21:19:06.204Z,6.20
2022-10-11T21:21:34.593Z,6.20
2022-10-11T21:24:03.590Z,6.10
2022-10-11T21:26:32.428Z,6.10
2022-10-11T21:29:00.496Z,6.10
2022-10-11T21:31:33.528Z,6.10
2022-10-11T21:34:02.380Z,6.10
2022-10-11T21:36:31.898Z,6.00
2022-10-11T21:39:00.001Z,6.00
2022-10-11T21:41:29.914Z,6.00
2022-10-11T21:43:58.533Z,6.00
2022-10-11T21:46:47.705Z,5.90
2022-10-11T21:49:16.429Z,5.80
2022-10-11T21:51:46.447Z,5.80
2022-10-11T21:54:14.522Z,5.80
2022-10-11T21:56:43.208Z,5.70
2022-10-11T21:59:12.581Z,5.70
2022-10-11T22:01:41.237Z,5.70
2022-10-11T22:04:09.532Z,5.70
2022-10-11T22:06:38.995Z,5.70
2022-10-11T22:09:09.278Z,5.70
2022-10-11T22:11:38.197Z,5.70
2022-10-11T22:14:06.995Z,5.70
2022-10-11T22:16:35.911Z,5.70
2022-10-11T22:19:04.361Z,5.70
2022-10-11T22:21:32.536Z,5.70
2022-10-11T22:24:00.644Z,5.70
2022-10-11T22:26:32.196Z,5.70
2022-10-11T22:29:00.836Z,5.60
2022-10-11T22:31:29.835Z,5.60
2022-10-11T22:33:59.453Z,5.50
2022-10-11T22:36:28.205Z,5.40
2022-10-11T22:38:56.328Z,5.50
2022-10-11T22:41:24.781Z,5.50
2022-10-11T22:43:54.282Z,5.50
2022-10-11T22:46:22.432Z,5.50
2022-10-11T22:48:50.525Z,5.50
2022-10-11T22:51:18.730Z,5.50
2022-10-11T22:53:47.111Z,5.50
2022-10-11T22:56:15.358Z,5.50
2022-10-11T22:58:43.535Z,5.50
2022-10-11T23:01:16.003Z,5.50
2022-10-11T23:03:44.379Z,5.50
2022-10-11T23:06:12.544Z,5.50
2022-10-11T23:08:40.652Z,5.50
2022-10-11T23:11:09.213Z,5.50
2022-10-11T23:13:37.587Z,5.50
2022-10-11T23:16:09.881Z,5.40
2022-10-11T23:18:39.440Z,5.40
2022-10-11T23:21:08.061Z,5.40
2022-10-11T23:23:37.208Z,5.30
2022-10-11T23:26:07.559Z,5.30
2022-10-11T23:28:36.329Z,5.30
2022-10-11T23:31:08.791Z,5.30
2022-10-11T23:33:37.173Z,5.30
2022-10-11T23:36:07.477Z,5.30
2022-10-11T23:38:35.578Z,5.20
2022-10-11T23:41:03.923Z,5.20
2022-10-11T23:43:32.011Z,5.10
2022-10-11T23:46:00.427Z,5.10
2022-10-11T23:48:28.613Z,5.10
2022-10-11T23:50:56.665Z,5.00
2022-10-11T23:53:26.143Z,4.90
2022-10-11T23:55:54.216Z,4.90
2022-10-11T23:58:22.276Z,4.90
